Airfield :







YOU CAN JOIN US ON...

 
LOGIN :

Register | Disclaimer

   EN    FR    IT 

 









Legend :    VFR   Marginal VFR   IFR   Intensive IFR   Very Intensive IFR
Visi :
Ceiling :
>= 8 km
>= 3000ft
5 to 8 km
1000 to 3000 ft
1500m to 5 km
500 to 1000 ft
800 to 1500m
200 to 500 ft
< 800m
< 200 ft
Symbols :   Thunderstorms  Fog  Heavy snow  Heavy precipitations  Wind > 20 kt







- Airport Elevation : 1188 ft


KCDA - Caledonia County

CURRENT METAR :
  • 262339Z AUTO 00000KT 10SM SCT075 24/16 A3002 RMK AO2 T02390161

EXPIRED METARs :
  • 262316Z AUTO 00000KT 10SM CLR 24/16 A3001 RMK AO2 T02410161
  • 262259Z AUTO 00000KT 10SM CLR 24/16 A3001 RMK AO2 T02410164
  • 262235Z AUTO 14003KT 10SM CLR 25/16 A3001 RMK AO2 T02470160
  • 262219Z AUTO 14004KT 10SM CLR 25/16 A3000 RMK AO2 T02480157
  • 262156Z AUTO 13003KT 10SM CLR 26/15 A2999 RMK AO2 T02550147
  • 262139Z AUTO 14004KT 10SM CLR 27/15 A2999 RMK AO2 T02660147
  • 262115Z AUTO 10006KT 10SM CLR 27/14 A2999 RMK AO2 T02670137
  • 262059Z AUTO 11004KT 10SM CLR 27/14 A2999 RMK AO2 T02670141

TAF N/A
KZBW FIR / North America



MET'MAP, your aeronautical weather chart ! - Copyright ORBIFLY December 2007 - Disclaimer

ORBIFLY MET'MAP TEAM :

Programming & Development : Alexandra Zaïnal
Concept & Development : Baudouin d'Aumeries
Co-Development & Prog : Marc-Olivier Méhu
Technical & hardware support : Manuel Goepfert

Contact : metmap@orbifly.com




SOURCES & CREDITS :

   NOAA